Time;durP1;ratioP1;P1;durP2;ratioP2;P2;SDS_P1;SDS_P2;PMS_P1;PMS_P2;Temp;Humidity;BMP_temperature;BMP_pressure;BME280_temperature;BME280_humidity;BME280_pressure;Samples;Min_cycle;Max_cycle;Signal;HPM_P1;HPM_P2
2022/01/04 00:00:50;;;;;;;0.00;0.00;;;7.50;99.90;;;;;;4955437;28;20048;-67
2022/01/04 00:03:16;;;;;;;0.30;0.30;;;7.50;99.90;;;;;;4954095;28;20075;-67
2022/01/04 00:05:42;;;;;;;0.15;0.15;;;7.60;99.90;;;;;;4940158;28;20051;-67
2022/01/04 00:08:11;;;;;;;0.00;0.00;;;7.60;99.90;;;;;;4940378;28;20051;-68
2022/01/04 00:10:37;;;;;;;0.00;0.00;;;7.70;99.90;;;;;;4939235;28;20189;-67
2022/01/04 00:15:47;;;;;;;0.00;0.00;;;7.70;99.90;;;;;;4940524;28;20055;-66
2022/01/04 00:18:13;;;;;;;0.00;0.00;;;7.70;99.90;;;;;;4953615;28;20172;-67
2022/01/04 00:20:39;;;;;;;0.00;0.00;;;7.70;99.90;;;;;;4940545;28;20048;-67
2022/01/04 00:23:05;;;;;;;0.15;0.15;;;7.70;99.90;;;;;;4954589;28;20051;-67
2022/01/04 00:25:31;;;;;;;0.88;0.10;;;7.70;99.90;;;;;;4940770;28;20130;-66
2022/01/04 00:27:58;;;;;;;0.00;0.00;;;7.70;99.90;;;;;;4954236;28;20055;-66
2022/01/04 00:30:28;;;;;;;0.00;0.00;;;7.70;99.90;;;;;;4949593;28;20045;-66
2022/01/04 00:32:54;;;;;;;0.00;0.00;;;7.70;99.90;;;;;;4957118;28;20092;-66
2022/01/04 00:35:20;;;;;;;0.00;0.00;;;7.70;99.90;;;;;;4958137;28;20875;-67
2022/01/04 00:37:46;;;;;;;0.00;0.00;;;8.10;99.90;;;;;;4941579;28;20240;-66
2022/01/04 00:40:12;;;;;;;0.00;0.00;;;7.70;99.90;;;;;;4959252;28;20054;-66
2022/01/04 00:42:37;;;;;;;2.53;0.85;;;7.80;99.90;;;;;;4957956;28;20508;-66
2022/01/04 00:45:03;;;;;;;0.00;0.00;;;7.80;99.90;;;;;;4958623;28;20042;-66
2022/01/04 00:47:41;;;;;;;0.00;0.00;;;7.80;99.90;;;;;;4959110;28;20043;-67
2022/01/04 00:50:07;;;;;;;2.20;1.08;;;7.80;99.90;;;;;;4957700;28;20065;-66
2022/01/04 00:52:33;;;;;;;0.00;0.00;;;7.80;99.90;;;;;;4958793;28;20047;-67
2022/01/04 00:54:59;;;;;;;0.00;0.00;;;7.80;99.90;;;;;;4957671;28;20100;-66
2022/01/04 00:57:24;;;;;;;0.00;0.00;;;7.80;99.90;;;;;;4958273;28;20459;-67
2022/01/04 00:59:50;;;;;;;0.00;0.00;;;7.80;99.90;;;;;;4957816;28;20086;-66
2022/01/04 01:02:15;;;;;;;0.00;0.00;;;7.80;99.90;;;;;;4957476;28;20453;-66
2022/01/04 01:04:41;;;;;;;0.10;0.10;;;7.80;99.90;;;;;;4957974;28;20059;-66
2022/01/04 01:07:07;;;;;;;0.00;0.00;;;7.80;99.90;;;;;;4957713;28;20550;-66
2022/01/04 01:09:38;;;;;;;0.00;0.00;;;7.80;99.90;;;;;;4959469;28;20043;-66
2022/01/04 01:12:05;;;;;;;0.00;0.00;;;7.80;99.90;;;;;;4956735;28;20058;-66
2022/01/04 01:14:30;;;;;;;0.00;0.00;;;7.70;99.90;;;;;;4959508;28;20168;-67
2022/01/04 01:16:56;;;;;;;0.05;0.05;;;7.80;99.90;;;;;;4956681;28;20757;-68
2022/01/04 01:19:21;;;;;;;0.00;0.00;;;7.70;99.90;;;;;;4958440;28;20062;-67
2022/01/04 01:21:47;;;;;;;0.55;0.55;;;7.60;99.90;;;;;;4956680;28;20051;-67
2022/01/04 01:24:13;;;;;;;0.00;0.00;;;7.70;99.90;;;;;;4959139;28;20043;-66
2022/01/04 01:26:38;;;;;;;0.00;0.00;;;7.60;99.90;;;;;;4957587;28;20061;-67
2022/01/04 01:29:04;;;;;;;0.00;0.00;;;7.60;99.90;;;;;;4951995;28;20298;-66
2022/01/04 01:31:30;;;;;;;0.00;0.00;;;8.00;99.90;;;;;;4938165;28;20055;-66
2022/01/04 01:33:56;;;;;;;0.00;0.00;;;7.60;99.90;;;;;;4937948;28;20139;-66
2022/01/04 01:36:22;;;;;;;0.00;0.00;;;7.50;99.90;;;;;;4939660;28;20126;-66
2022/01/04 01:38:48;;;;;;;0.57;0.13;;;7.50;99.90;;;;;;4937459;29;20130;-66
2022/01/04 01:41:14;;;;;;;0.00;0.00;;;7.50;99.90;;;;;;4937780;29;20609;-66
2022/01/04 01:43:39;;;;;;;0.00;0.00;;;7.50;99.90;;;;;;4954279;28;20096;-66
2022/01/04 01:46:05;;;;;;;0.00;0.00;;;7.70;99.90;;;;;;4937183;28;20498;-65
2022/01/04 01:48:31;;;;;;;0.00;0.00;;;7.50;99.90;;;;;;4938062;28;20075;-66
2022/01/04 01:50:56;;;;;;;0.00;0.00;;;7.50;99.90;;;;;;4937599;28;20043;-66
2022/01/04 01:53:23;;;;;;;0.00;0.00;;;7.40;99.90;;;;;;4937974;29;20380;-66
2022/01/04 01:55:49;;;;;;;0.00;0.00;;;7.90;99.90;;;;;;4953743;28;20047;-67
2022/01/04 01:58:14;;;;;;;0.00;0.00;;;7.40;99.90;;;;;;4937267;28;20104;-66
2022/01/04 02:00:40;;;;;;;0.00;0.00;;;7.40;99.90;;;;;;4938373;28;20051;-66
2022/01/04 02:03:06;;;;;;;0.00;0.00;;;7.40;99.90;;;;;;4938838;28;20429;-66
2022/01/04 02:05:32;;;;;;;0.00;0.00;;;7.40;99.90;;;;;;4953941;28;20058;-66
2022/01/04 02:08:02;;;;;;;0.00;0.00;;;7.50;99.90;;;;;;4953609;28;20130;-66
2022/01/04 02:10:30;;;;;;;0.13;0.13;;;7.60;99.90;;;;;;4938063;29;20082;-66
2022/01/04 02:12:56;;;;;;;0.00;0.00;;;7.50;99.90;;;;;;4953315;28;20069;-66
2022/01/04 02:15:24;;;;;;;0.00;0.00;;;7.50;99.90;;;;;;4937679;28;20452;-66
2022/01/04 02:17:51;;;;;;;0.00;0.00;;;7.50;99.90;;;;;;4939899;28;20055;-66
2022/01/04 02:20:17;;;;;;;0.00;0.00;;;7.50;99.90;;;;;;4940966;28;20051;-66
2022/01/04 02:22:43;;;;;;;2.28;1.05;;;7.50;99.90;;;;;;4956776;28;20047;-66
2022/01/04 02:25:10;;;;;;;0.00;0.00;;;7.50;99.90;;;;;;4940220;28;20048;-66
2022/01/04 02:27:40;;;;;;;0.00;0.00;;;8.10;99.90;;;;;;4942862;28;20092;-66
2022/01/04 02:30:08;;;;;;;0.00;0.00;;;7.60;99.90;;;;;;4950274;28;20043;-66
2022/01/04 02:32:34;;;;;;;0.00;0.00;;;7.50;99.90;;;;;;4939179;28;20124;-66
2022/01/04 02:35:00;;;;;;;0.00;0.00;;;7.50;99.90;;;;;;4940766;29;20059;-66
2022/01/04 02:37:28;;;;;;;0.10;0.10;;;7.50;99.90;;;;;;4940540;29;20139;-66
2022/01/04 02:39:54;;;;;;;0.00;0.00;;;7.70;99.90;;;;;;4940767;29;20051;-66
2022/01/04 02:42:21;;;;;;;0.00;0.00;;;7.30;99.90;;;;;;4939761;28;20085;-66
2022/01/04 02:44:46;;;;;;;0.00;0.00;;;7.60;99.90;;;;;;4941500;28;20070;-66
2022/01/04 02:47:13;;;;;;;0.00;0.00;;;7.60;99.90;;;;;;4939511;28;20055;-66
2022/01/04 02:49:39;;;;;;;0.00;0.00;;;8.00;99.90;;;;;;4940527;28;20117;-66
2022/01/04 02:52:05;;;;;;;0.00;0.00;;;7.80;99.90;;;;;;4923898;29;20509;-66
2022/01/04 02:54:31;;;;;;;0.00;0.00;;;7.50;99.90;;;;;;4941020;29;20130;-66
2022/01/04 02:56:57;;;;;;;0.00;0.00;;;7.50;99.90;;;;;;4940373;28;20051;-66
2022/01/04 02:59:22;;;;;;;0.45;0.43;;;7.60;99.90;;;;;;4939911;29;20059;-66
2022/01/04 03:01:48;;;;;;;0.03;0.03;;;7.10;99.90;;;;;;4940607;28;20062;-66
2022/01/04 03:04:14;;;;;;;0.00;0.00;;;7.50;99.90;;;;;;4924666;28;20211;-66
2022/01/04 03:06:39;;;;;;;0.00;0.00;;;7.50;99.90;;;;;;4940345;29;20047;-66
2022/01/04 03:09:06;;;;;;;0.00;0.00;;;7.50;99.90;;;;;;4940663;28;20047;-66
2022/01/04 03:11:33;;;;;;;0.00;0.00;;;7.50;99.90;;;;;;4940344;29;20498;-66
2022/01/04 03:13:59;;;;;;;0.00;0.00;;;7.50;99.90;;;;;;4941361;28;20070;-66
2022/01/04 03:16:25;;;;;;;0.00;0.00;;;7.50;99.90;;;;;;4939095;28;20043;-66
2022/01/04 03:21:22;;;;;;;0.00;0.00;;;7.40;99.90;;;;;;4940016;28;20814;-65
2022/01/04 03:23:48;;;;;;;0.00;0.00;;;7.40;99.90;;;;;;4940050;29;20130;-66
2022/01/04 03:26:13;;;;;;;0.00;0.00;;;6.70;99.90;;;;;;4939504;28;20465;-66
2022/01/04 03:28:40;;;;;;;0.00;0.00;;;7.40;99.90;;;;;;4947116;28;20054;-66
2022/01/04 03:31:07;;;;;;;0.00;0.00;;;7.40;99.90;;;;;;4938982;29;20885;-66
2022/01/04 03:33:34;;;;;;;0.00;0.00;;;7.40;99.90;;;;;;4941490;28;20054;-65
2022/01/04 03:36:01;;;;;;;0.00;0.00;;;8.50;99.90;;;;;;4939418;29;20148;-66
2022/01/04 03:38:27;;;;;;;0.00;0.00;;;7.40;99.90;;;;;;4941135;28;20039;-65
2022/01/04 03:40:53;;;;;;;0.00;0.00;;;7.90;99.90;;;;;;4939837;29;20549;-66
2022/01/04 03:43:18;;;;;;;0.00;0.00;;;7.60;99.90;;;;;;4939476;29;20039;-66
2022/01/04 03:45:44;;;;;;;0.00;0.00;;;7.40;99.90;;;;;;4939519;28;20185;-66
2022/01/04 03:48:09;;;;;;;0.10;0.10;;;7.40;99.90;;;;;;4939902;28;20047;-66
2022/01/04 03:50:35;;;;;;;0.00;0.00;;;7.50;99.90;;;;;;4939700;29;20050;-66
2022/01/04 03:53:01;;;;;;;0.20;0.20;;;7.40;99.90;;;;;;4939242;29;20188;-66
2022/01/04 03:55:26;;;;;;;0.00;0.00;;;8.60;99.90;;;;;;4940118;28;20488;-66
2022/01/04 03:57:52;;;;;;;0.00;0.00;;;7.70;99.90;;;;;;4939408;29;20051;-66
2022/01/04 04:00:17;;;;;;;0.00;0.00;;;7.40;99.90;;;;;;4954934;28;20044;-66
2022/01/04 04:02:43;;;;;;;0.00;0.00;;;7.30;99.90;;;;;;4940526;28;20044;-66
2022/01/04 04:05:09;;;;;;;0.00;0.00;;;7.30;99.90;;;;;;4939795;28;20678;-65
2022/01/04 04:07:35;;;;;;;0.00;0.00;;;8.20;99.90;;;;;;4955449;28;20047;-66
2022/01/04 04:10:00;;;;;;;0.00;0.00;;;7.60;99.90;;;;;;5023486;28;20501;-66
2022/01/04 04:12:26;;;;;;;0.10;0.10;;;8.00;99.90;;;;;;4940346;28;20090;-66
2022/01/04 04:14:52;;;;;;;0.05;0.05;;;7.30;99.90;;;;;;4939015;28;20047;-66
2022/01/04 04:17:17;;;;;;;0.00;0.00;;;7.30;99.90;;;;;;4939603;28;20101;-66
2022/01/04 04:19:43;;;;;;;0.00;0.00;;;8.00;99.90;;;;;;4940282;28;20047;-66
2022/01/04 04:22:08;;;;;;;0.10;0.10;;;7.30;99.90;;;;;;4940132;28;20043;-66
2022/01/04 04:24:34;;;;;;;0.00;0.00;;;7.30;99.90;;;;;;4939027;29;20584;-66
2022/01/04 04:27:00;;;;;;;0.25;0.25;;;7.30;99.90;;;;;;4939341;28;20768;-66
2022/01/04 04:29:25;;;;;;;0.00;0.00;;;7.30;99.90;;;;;;4949711;28;20052;-67
2022/01/04 04:31:51;;;;;;;0.20;0.20;;;7.50;99.90;;;;;;4921793;29;20714;-67
2022/01/04 04:34:17;;;;;;;0.00;0.00;;;7.30;99.90;;;;;;4940544;28;20059;-67
2022/01/04 04:36:42;;;;;;;0.65;0.55;;;7.40;99.90;;;;;;4939745;28;20055;-66
2022/01/04 04:39:08;;;;;;;0.52;0.52;;;7.30;99.90;;;;;;4937980;28;20101;-66
2022/01/04 04:41:33;;;;;;;0.00;0.00;;;7.70;99.90;;;;;;4922449;29;20966;-66
2022/01/04 04:43:59;;;;;;;0.00;0.00;;;7.30;99.90;;;;;;4939348;29;20660;-66
2022/01/04 04:46:25;;;;;;;0.00;0.00;;;7.90;99.90;;;;;;4938027;29;20051;-67
2022/01/04 04:48:50;;;;;;;0.00;0.00;;;7.40;99.90;;;;;;4939823;28;20102;-66
2022/01/04 04:51:16;;;;;;;0.20;0.20;;;7.40;99.90;;;;;;4939268;28;20055;-66
2022/01/04 04:53:41;;;;;;;0.00;0.00;;;7.40;99.90;;;;;;4938600;28;20108;-66
2022/01/04 04:56:07;;;;;;;0.00;0.00;;;7.70;99.90;;;;;;4938710;28;20414;-66
2022/01/04 04:58:33;;;;;;;0.00;0.00;;;7.40;99.90;;;;;;4938779;29;20540;-69
2022/01/04 05:00:58;;;;;;;0.00;0.00;;;7.40;99.90;;;;;;4937470;28;20477;-66
2022/01/04 05:03:24;;;;;;;0.00;0.00;;;7.40;99.90;;;;;;4938638;29;20196;-66
2022/01/04 05:05:49;;;;;;;0.00;0.00;;;7.40;99.90;;;;;;4938354;29;20064;-66
2022/01/04 05:08:15;;;;;;;0.00;0.00;;;7.40;99.90;;;;;;4939976;28;20509;-66
2022/01/04 05:10:42;;;;;;;0.00;0.00;;;7.40;99.90;;;;;;4938721;28;20552;-66
2022/01/04 05:13:08;;;;;;;0.10;0.10;;;7.40;99.90;;;;;;4939742;28;20043;-66
2022/01/04 05:15:34;;;;;;;0.00;0.00;;;7.30;99.90;;;;;;4921758;29;20050;-65
2022/01/04 05:17:59;;;;;;;0.20;0.20;;;7.40;99.90;;;;;;4939759;28;20050;-68
2022/01/04 05:20:25;;;;;;;0.00;0.00;;;7.40;99.90;;;;;;4938145;28;20728;-65
2022/01/04 05:22:51;;;;;;;0.00;0.00;;;7.30;99.90;;;;;;4939465;28;20462;-66
2022/01/04 05:25:16;;;;;;;0.00;0.00;;;7.30;99.90;;;;;;4938251;28;20047;-65
2022/01/04 05:27:42;;;;;;;0.00;0.00;;;7.30;99.90;;;;;;4941379;28;20091;-66
2022/01/04 05:30:08;;;;;;;0.00;0.00;;;7.40;99.90;;;;;;4945799;28;20047;-66
2022/01/04 05:32:34;;;;;;;0.00;0.00;;;7.40;99.90;;;;;;4939482;28;20043;-66
2022/01/04 05:34:59;;;;;;;0.00;0.00;;;7.40;99.90;;;;;;4938334;29;20051;-66
2022/01/04 05:37:25;;;;;;;0.00;0.00;;;7.40;99.90;;;;;;4921878;29;20491;-66
2022/01/04 05:39:51;;;;;;;0.00;0.00;;;7.40;99.90;;;;;;4938601;28;20055;-67
2022/01/04 05:42:16;;;;;;;0.00;0.00;;;7.40;99.90;;;;;;4938524;29;20051;-66
2022/01/04 05:44:42;;;;;;;0.00;0.00;;;7.50;99.90;;;;;;4939238;28;20066;-66
2022/01/04 05:47:08;;;;;;;0.00;0.00;;;7.40;99.90;;;;;;4936659;29;20061;-66
2022/01/04 05:49:34;;;;;;;0.00;0.00;;;7.40;99.90;;;;;;4923257;29;20054;-67
2022/01/04 05:52:00;;;;;;;0.10;0.10;;;7.40;99.90;;;;;;4943040;28;20059;-66
2022/01/04 05:54:25;;;;;;;0.00;0.00;;;8.10;99.90;;;;;;4941108;29;20061;-66
2022/01/04 05:56:51;;;;;;;0.00;0.00;;;7.50;99.90;;;;;;4941859;28;20066;-66
2022/01/04 05:59:16;;;;;;;0.20;0.17;;;7.40;99.90;;;;;;4941239;29;20059;-66
2022/01/04 06:01:42;;;;;;;0.00;0.00;;;8.20;99.90;;;;;;4940443;28;20125;-66
2022/01/04 06:04:10;;;;;;;0.00;0.00;;;8.70;99.90;;;;;;4957099;28;20053;-65
2022/01/04 06:06:36;;;;;;;0.32;0.15;;;7.40;99.90;;;;;;4942067;28;20506;-66
2022/01/04 06:09:02;;;;;;;0.00;0.00;;;7.50;99.90;;;;;;4942439;28;20083;-65
2022/01/04 06:16:57;;;;;;;0.00;0.00;;;7.40;99.90;;;;;;5022463;28;20326;-66
2022/01/04 06:19:23;;;;;;;0.13;0.13;;;7.50;99.90;;;;;;4956783;28;20063;-66
2022/01/04 06:21:49;;;;;;;0.00;0.00;;;7.50;99.90;;;;;;4940833;29;20047;-66
2022/01/04 06:24:14;;;;;;;0.00;0.00;;;7.40;99.90;;;;;;4940805;28;20047;-66
2022/01/04 06:26:40;;;;;;;0.10;0.10;;;7.50;99.90;;;;;;4942046;28;20063;-66
2022/01/04 06:29:08;;;;;;;0.00;0.00;;;7.40;99.90;;;;;;4950485;28;20482;-66
2022/01/04 06:31:34;;;;;;;0.00;0.00;;;6.70;99.90;;;;;;4955714;28;20065;-66
2022/01/04 06:34:00;;;;;;;0.10;0.10;;;7.40;99.90;;;;;;4941962;28;20086;-66
2022/01/04 06:36:25;;;;;;;0.00;0.00;;;7.40;99.90;;;;;;4940416;28;20090;-66
2022/01/04 06:38:51;;;;;;;0.88;0.32;;;7.50;99.90;;;;;;4940083;29;20238;-66
2022/01/04 06:41:17;;;;;;;0.32;0.15;;;7.40;99.90;;;;;;4940294;29;20093;-65
2022/01/04 06:43:43;;;;;;;0.00;0.00;;;7.50;99.90;;;;;;4941450;28;20875;-66
2022/01/04 06:46:11;;;;;;;0.13;0.10;;;7.40;99.90;;;;;;4940574;28;20039;-65
2022/01/04 06:48:38;;;;;;;0.00;0.00;;;8.60;99.90;;;;;;4940346;29;20055;-66
2022/01/04 06:51:04;;;;;;;0.10;0.10;;;7.40;99.90;;;;;;4941354;28;20047;-66
2022/01/04 06:53:29;;;;;;;0.00;0.00;;;7.40;99.90;;;;;;4940910;29;20051;-66
2022/01/04 06:55:55;;;;;;;0.00;0.00;;;8.30;99.90;;;;;;4940806;28;20036;-66
2022/01/04 06:58:20;;;;;;;0.00;0.00;;;7.40;99.90;;;;;;4941499;28;20507;-64
2022/01/04 07:00:46;;;;;;;0.00;0.00;;;7.40;99.90;;;;;;4939105;28;20081;-65
2022/01/04 07:03:12;;;;;;;0.35;0.30;;;7.40;99.90;;;;;;4941138;28;20049;-66
2022/01/04 07:05:38;;;;;;;0.05;0.03;;;7.40;99.90;;;;;;5023626;28;20055;-65
2022/01/04 07:08:04;;;;;;;0.00;0.00;;;7.40;99.90;;;;;;5023867;28;20047;-66
2022/01/04 07:10:29;;;;;;;0.10;0.10;;;7.40;99.90;;;;;;4942249;28;20062;-66
2022/01/04 07:12:55;;;;;;;0.10;0.10;;;7.40;99.90;;;;;;4939875;28;20051;-65
2022/01/04 07:15:21;;;;;;;0.00;0.00;;;7.40;99.90;;;;;;4939599;28;20113;-66
2022/01/04 07:17:47;;;;;;;0.00;0.00;;;7.40;99.90;;;;;;4939676;29;20571;-66
2022/01/04 07:20:13;;;;;;;0.00;0.00;;;7.40;99.90;;;;;;4941140;28;20044;-65
2022/01/04 07:22:39;;;;;;;0.00;0.00;;;7.90;99.90;;;;;;4940179;29;20225;-65
2022/01/04 07:25:05;;;;;;;0.00;0.00;;;7.40;99.90;;;;;;4940751;28;20051;-65
2022/01/04 07:27:31;;;;;;;0.00;0.00;;;7.40;99.90;;;;;;4943409;28;20469;-67
2022/01/04 07:29:57;;;;;;;0.20;0.20;;;7.40;99.90;;;;;;4947379;28;20090;-66
2022/01/04 07:32:23;;;;;;;0.43;0.43;;;7.40;99.90;;;;;;4939897;28;20047;-67
2022/01/04 07:34:48;;;;;;;0.22;0.17;;;7.40;99.90;;;;;;4939413;28;20082;-67
2022/01/04 07:37:14;;;;;;;0.00;0.00;;;7.40;99.90;;;;;;4924048;29;20043;-67
2022/01/04 07:39:40;;;;;;;0.00;0.00;;;8.30;99.90;;;;;;4940673;28;20074;-66
2022/01/04 07:42:06;;;;;;;0.00;0.00;;;7.30;99.90;;;;;;4940136;28;20043;-66
2022/01/04 07:44:33;;;;;;;0.15;0.10;;;7.30;99.90;;;;;;4941117;28;20040;-66
2022/01/04 07:46:59;;;;;;;0.00;0.00;;;7.30;99.90;;;;;;4940251;28;20066;-66
2022/01/04 07:49:25;;;;;;;0.77;0.75;;;7.30;99.90;;;;;;4955616;28;20039;-67
2022/01/04 07:51:51;;;;;;;0.00;0.00;;;7.40;99.90;;;;;;4922416;29;20097;-67
2022/01/04 07:54:16;;;;;;;0.00;0.00;;;7.30;99.90;;;;;;4940609;28;20051;-66
2022/01/04 07:56:42;;;;;;;0.00;0.00;;;7.50;99.90;;;;;;4939179;28;20099;-66
2022/01/04 07:59:07;;;;;;;0.00;0.00;;;7.30;99.90;;;;;;4940574;28;20078;-66
2022/01/04 08:01:33;;;;;;;0.00;0.00;;;7.40;99.90;;;;;;4938165;29;20508;-67
2022/01/04 08:04:00;;;;;;;0.13;0.13;;;7.20;99.90;;;;;;4940484;28;20632;-66
2022/01/04 08:06:27;;;;;;;0.00;0.00;;;7.30;99.90;;;;;;4923158;29;20132;-66
2022/01/04 08:08:53;;;;;;;0.10;0.10;;;7.30;99.90;;;;;;4940039;28;20051;-66
2022/01/04 08:11:19;;;;;;;0.10;0.10;;;7.30;99.90;;;;;;4938585;29;20081;-66
2022/01/04 08:13:45;;;;;;;0.00;0.00;;;7.30;99.90;;;;;;4938997;29;20055;-66
2022/01/04 08:16:13;;;;;;;0.00;0.00;;;7.30;99.90;;;;;;4939270;28;20069;-66
2022/01/04 08:18:39;;;;;;;0.10;0.10;;;7.30;99.90;;;;;;4938522;28;20283;-66
2022/01/04 08:21:05;;;;;;;0.00;0.00;;;7.30;99.90;;;;;;4939966;28;20047;-66
2022/01/04 08:23:31;;;;;;;0.00;0.00;;;7.30;99.90;;;;;;4939287;28;20061;-66
2022/01/04 08:25:57;;;;;;;0.03;0.03;;;7.30;99.90;;;;;;4940180;28;20051;-66
2022/01/04 08:28:23;;;;;;;0.00;0.00;;;7.30;99.90;;;;;;4941939;28;20070;-67
2022/01/04 08:30:48;;;;;;;0.00;0.00;;;7.30;99.90;;;;;;4953726;28;20043;-67
2022/01/04 08:33:14;;;;;;;0.00;0.00;;;7.30;99.90;;;;;;4938946;29;20051;-67
2022/01/04 08:35:40;;;;;;;0.00;0.00;;;7.80;99.90;;;;;;4939033;29;20110;-66
2022/01/04 08:38:06;;;;;;;0.00;0.00;;;7.30;99.90;;;;;;4938167;28;20085;-66
2022/01/04 08:40:32;;;;;;;0.00;0.00;;;7.20;99.90;;;;;;4939014;29;20473;-66
2022/01/04 08:42:58;;;;;;;0.00;0.00;;;7.10;99.90;;;;;;4939667;28;20108;-66
2022/01/04 08:45:24;;;;;;;0.00;0.00;;;7.00;99.90;;;;;;4939169;28;20055;-66
2022/01/04 08:47:51;;;;;;;0.00;0.00;;;7.60;99.90;;;;;;4937894;29;20055;-65
2022/01/04 08:50:18;;;;;;;0.00;0.00;;;6.90;99.90;;;;;;4938480;29;20050;-65
2022/01/04 08:52:43;;;;;;;0.00;0.00;;;6.90;99.90;;;;;;4939433;28;20047;-66
2022/01/04 08:55:10;;;;;;;0.00;0.00;;;6.80;99.90;;;;;;4939050;28;20101;-65
2022/01/04 08:57:36;;;;;;;0.00;0.00;;;7.10;99.90;;;;;;4939668;28;20097;-67
2022/01/04 09:00:05;;;;;;;0.00;0.00;;;6.60;99.90;;;;;;4939489;28;20051;-65
2022/01/04 09:02:33;;;;;;;0.05;0.05;;;6.70;99.90;;;;;;4939014;29;20052;-67
2022/01/04 09:04:59;;;;;;;0.00;0.00;;;6.60;99.90;;;;;;4937948;28;20055;-67
2022/01/04 09:07:25;;;;;;;0.00;0.00;;;6.70;99.90;;;;;;4939739;28;20074;-65
2022/01/04 09:09:51;;;;;;;0.00;0.00;;;6.60;99.90;;;;;;4938283;29;20824;-66
2022/01/04 09:12:19;;;;;;;0.00;0.00;;;7.10;99.90;;;;;;4939446;28;20039;-66
2022/01/04 09:15:04;;;;;;;0.00;0.00;;;6.70;99.90;;;;;;4937164;29;20043;-66
2022/01/04 09:20:15;;;;;;;0.00;0.00;;;6.70;99.90;;;;;;4938337;28;20453;-68
2022/01/04 09:22:41;;;;;;;0.00;0.00;;;6.70;99.90;;;;;;4939500;28;20039;-66
2022/01/04 09:25:09;;;;;;;0.00;0.00;;;6.80;99.90;;;;;;4940030;29;20386;-66
2022/01/04 09:27:35;;;;;;;0.00;0.00;;;6.80;99.90;;;;;;4944660;28;20137;-65
2022/01/04 09:30:04;;;;;;;0.00;0.00;;;6.80;99.90;;;;;;4950801;28;20052;-65
2022/01/04 09:32:32;;;;;;;0.00;0.00;;;6.80;99.90;;;;;;4941914;29;20043;-67
2022/01/04 09:34:59;;;;;;;0.00;0.00;;;6.80;99.90;;;;;;4957186;28;20540;-66
2022/01/04 09:37:25;;;;;;;0.00;0.00;;;6.90;99.90;;;;;;4925378;29;20092;-66
2022/01/04 09:39:51;;;;;;;0.00;0.00;;;6.80;99.90;;;;;;4941702;29;20043;-65
2022/01/04 09:42:19;;;;;;;0.00;0.00;;;6.80;99.90;;;;;;4941610;29;20115;-65
2022/01/04 09:44:45;;;;;;;0.00;0.00;;;6.80;99.90;;;;;;4924095;29;20086;-65
2022/01/04 09:47:10;;;;;;;0.00;0.00;;;6.80;99.90;;;;;;4941621;29;20482;-65
2022/01/04 09:49:36;;;;;;;0.00;0.00;;;6.80;99.90;;;;;;4941353;29;20113;-66
2022/01/04 09:52:05;;;;;;;0.00;0.00;;;6.70;99.90;;;;;;4941189;28;20047;-65
2022/01/04 09:54:32;;;;;;;0.00;0.00;;;6.80;99.90;;;;;;4957414;28;20045;-66
2022/01/04 09:56:59;;;;;;;0.00;0.00;;;6.70;99.90;;;;;;4942766;28;20039;-65
2022/01/04 09:59:24;;;;;;;0.00;0.00;;;6.80;99.90;;;;;;4940385;28;20393;-66
2022/01/04 10:01:55;;;;;;;0.00;0.00;;;6.70;99.90;;;;;;4940388;28;20055;-65
2022/01/04 10:04:24;;;;;;;0.00;0.00;;;6.70;99.90;;;;;;4925172;29;20059;-66
2022/01/04 10:07:02;;;;;;;0.00;0.00;;;6.70;99.90;;;;;;4942409;28;20108;-65
2022/01/04 10:09:35;;;;;;;0.00;0.00;;;6.70;99.90;;;;;;4925103;29;20279;-66
2022/01/04 10:12:01;;;;;;;0.00;0.00;;;6.50;99.90;;;;;;4925295;29;20098;-66
2022/01/04 10:14:35;;;;;;;0.00;0.00;;;6.50;99.90;;;;;;4941452;28;20082;-66
2022/01/04 10:17:03;;;;;;;0.00;0.00;;;6.40;99.90;;;;;;4940675;29;20070;-66
2022/01/04 10:19:58;;;;;;;0.00;0.00;;;6.40;99.90;;;;;;4941701;28;20050;-66
2022/01/04 10:22:27;;;;;;;0.00;0.00;;;6.40;99.90;;;;;;4940918;28;20067;-66
2022/01/04 10:25:04;;;;;;;0.00;0.00;;;6.40;99.90;;;;;;4940504;28;20051;-66
2022/01/04 10:27:49;;;;;;;0.00;0.00;;;6.30;99.90;;;;;;4942720;28;20119;-66
2022/01/04 10:30:20;;;;;;;0.00;0.00;;;6.40;99.90;;;;;;4948211;28;20417;-66
2022/01/04 10:33:20;;;;;;;0.00;0.00;;;6.40;99.90;;;;;;4940536;29;20070;-67
2022/01/04 10:35:56;;;;;;;0.00;0.00;;;6.40;99.90;;;;;;4939537;28;20756;-69
2022/01/04 10:38:24;;;;;;;0.00;0.00;;;6.30;99.90;;;;;;4940257;28;20051;-67
2022/01/04 10:41:11;;;;;;;0.00;0.00;;;6.30;99.90;;;;;;4940498;29;20097;-68
2022/01/04 10:43:40;;;;;;;0.00;0.00;;;6.30;99.90;;;;;;4970007;28;20051;-67
2022/01/04 10:46:06;;;;;;;0.00;0.00;;;6.20;99.90;;;;;;4939492;28;20454;-67
2022/01/04 10:48:39;;;;;;;0.00;0.00;;;6.20;99.90;;;;;;4942361;28;20074;-67
2022/01/04 10:51:09;;;;;;;0.00;0.00;;;6.20;99.90;;;;;;4940352;29;20073;-66
2022/01/04 10:53:44;;;;;;;0.00;0.00;;;7.40;99.90;;;;;;4939852;28;20047;-65
2022/01/04 10:56:15;;;;;;;0.00;0.00;;;7.60;99.90;;;;;;4940639;28;20062;-66
2022/01/04 10:58:44;;;;;;;0.00;0.00;;;6.70;99.90;;;;;;4939931;29;20043;-69
2022/01/04 11:01:15;;;;;;;0.00;0.00;;;6.50;99.90;;;;;;4940422;28;20133;-67
2022/01/04 11:03:46;;;;;;;0.00;0.00;;;6.40;99.90;;;;;;4941522;28;20090;-67
2022/01/04 11:06:23;;;;;;;0.00;0.00;;;6.30;99.90;;;;;;4941552;28;20461;-66
2022/01/04 11:08:48;;;;;;;0.00;0.00;;;6.20;99.90;;;;;;4941082;28;20063;-67
2022/01/04 11:11:15;;;;;;;0.00;0.00;;;6.10;99.90;;;;;;4941276;28;20066;-66
2022/01/04 11:13:41;;;;;;;0.00;0.00;;;7.40;99.90;;;;;;4940213;28;20482;-66
2022/01/04 11:16:07;;;;;;;0.00;0.00;;;5.90;99.90;;;;;;4939943;28;20482;-66
2022/01/04 11:18:34;;;;;;;0.00;0.00;;;5.90;99.90;;;;;;4941481;28;20059;-66
2022/01/04 11:21:00;;;;;;;0.00;0.00;;;5.80;99.90;;;;;;4940407;28;20046;-66
2022/01/04 11:23:32;;;;;;;0.00;0.00;;;5.80;99.90;;;;;;4955732;28;20383;-66
2022/01/04 11:26:00;;;;;;;0.00;0.00;;;6.50;99.90;;;;;;4940010;28;20047;-66
2022/01/04 11:28:27;;;;;;;0.00;0.00;;;5.80;99.90;;;;;;4944317;28;20051;-66
2022/01/04 11:31:11;;;;;;;0.00;0.00;;;6.30;99.90;;;;;;4938666;29;20130;-66
2022/01/04 11:33:55;;;;;;;0.00;0.00;;;5.70;99.90;;;;;;4939555;29;20063;-66
2022/01/04 11:36:21;;;;;;;0.00;0.00;;;5.70;99.90;;;;;;4955758;28;20453;-66
2022/01/04 11:38:48;;;;;;;0.00;0.00;;;5.70;99.90;;;;;;4939672;28;20397;-66
2022/01/04 11:41:42;;;;;;;0.00;0.00;;;6.20;99.90;;;;;;4922861;28;20051;-66
2022/01/04 11:44:26;;;;;;;0.00;0.00;;;5.80;99.90;;;;;;4949346;28;20112;-66
2022/01/04 11:47:01;;;;;;;0.00;0.00;;;5.90;99.90;;;;;;4955062;28;20134;-66
2022/01/04 11:49:26;;;;;;;0.00;0.00;;;5.70;99.90;;;;;;5042355;28;20410;-66
2022/01/04 11:51:52;;;;;;;0.00;0.00;;;7.10;99.90;;;;;;4957927;28;20039;-66
2022/01/04 11:54:21;;;;;;;0.00;0.00;;;5.70;99.90;;;;;;4958420;28;20112;-67
2022/01/04 11:56:49;;;;;;;0.00;0.00;;;5.70;99.90;;;;;;4958275;28;20055;-66
2022/01/04 11:59:23;;;;;;;0.00;0.00;;;5.60;99.90;;;;;;4957601;28;20058;-66
2022/01/04 12:01:50;;;;;;;0.00;0.00;;;5.60;99.90;;;;;;4958227;28;20058;-67
2022/01/04 12:04:46;;;;;;;0.00;0.00;;;5.50;99.90;;;;;;4958616;28;20058;-68
2022/01/04 12:07:47;;;;;;;0.00;0.00;;;5.40;99.90;;;;;;4958961;28;20405;-68
2022/01/04 12:10:22;;;;;;;0.00;0.00;;;5.30;99.90;;;;;;4958477;28;20067;-68
2022/01/04 12:13:06;;;;;;;;;;;5.40;99.90;;;;;;5026161;28;20133;-66
2022/01/04 12:15:35;;;;;;;0.00;0.00;;;5.20;99.90;;;;;;4941676;28;19929;-67
2022/01/04 12:18:03;;;;;;;0.00;0.00;;;5.10;99.90;;;;;;4958559;28;20115;-67
2022/01/04 12:20:41;;;;;;;0.00;0.00;;;5.20;99.90;;;;;;4958157;28;20141;-67
2022/01/04 12:23:25;;;;;;;0.00;0.00;;;5.20;99.90;;;;;;4958152;28;20039;-67
2022/01/04 12:26:08;;;;;;;0.00;0.00;;;5.20;99.90;;;;;;4951965;28;20049;-67
2022/01/04 12:28:57;;;;;;;0.00;0.00;;;5.20;99.90;;;;;;4950462;28;20805;-67
2022/01/04 12:31:31;;;;;;;0.00;0.00;;;5.20;99.90;;;;;;4940099;28;20054;-67
2022/01/04 12:34:07;;;;;;;0.00;0.00;;;5.30;99.90;;;;;;4957475;28;20104;-67
2022/01/04 12:36:45;;;;;;;0.00;0.00;;;6.00;99.90;;;;;;4957593;28;20073;-67
2022/01/04 12:39:12;;;;;;;0.00;0.00;;;5.30;99.90;;;;;;5025812;28;20042;-67
2022/01/04 12:41:40;;;;;;;0.00;0.00;;;5.40;99.90;;;;;;4957873;28;20053;-68
2022/01/04 12:44:08;;;;;;;0.00;0.00;;;5.40;99.90;;;;;;5011952;28;20051;-68
2022/01/04 12:46:36;;;;;;;0.00;0.00;;;5.50;99.90;;;;;;4938124;29;20109;-68
2022/01/04 12:49:14;;;;;;;0.00;0.00;;;5.50;99.90;;;;;;4938939;29;20117;-68
2022/01/04 12:51:47;;;;;;;0.00;0.00;;;5.60;99.90;;;;;;4922662;29;20047;-68
2022/01/04 12:54:15;;;;;;;0.00;0.00;;;5.50;99.90;;;;;;4938485;29;20062;-68
2022/01/04 12:56:50;;;;;;;0.00;0.00;;;5.50;99.90;;;;;;4938525;29;20066;-66
2022/01/04 12:59:25;;;;;;;0.00;0.00;;;5.60;99.90;;;;;;4936055;28;20051;-66
2022/01/04 13:01:59;;;;;;;0.00;0.00;;;5.50;99.90;;;;;;4938501;29;20134;-67
2022/01/04 13:04:33;;;;;;;0.00;0.00;;;5.50;99.90;;;;;;4922327;29;20149;-67
2022/01/04 13:07:01;;;;;;;0.00;0.00;;;5.60;99.90;;;;;;4939361;28;20090;-64
2022/01/04 13:09:28;;;;;;;0.00;0.00;;;5.60;99.90;;;;;;4939564;28;20056;-66
2022/01/04 13:11:57;;;;;;;0.00;0.00;;;5.60;99.90;;;;;;4938208;29;20054;-63
2022/01/04 13:14:25;;;;;;;0.00;0.00;;;6.20;99.90;;;;;;4936808;28;20058;-66